sensor_id;sensor_type;location;lat;lon;timestamp;temperature;humidity
29713;DHT22;16623;53.632;10.016;2022-07-10T00:00:30;14.70;99.90
29713;DHT22;16623;53.632;10.016;2022-07-10T00:02:56;14.60;99.90
29713;DHT22;16623;53.632;10.016;2022-07-10T00:05:21;14.70;99.90
29713;DHT22;16623;53.632;10.016;2022-07-10T00:07:47;14.70;99.90
29713;DHT22;16623;53.632;10.016;2022-07-10T00:10:13;13.80;99.90
29713;DHT22;16623;53.632;10.016;2022-07-10T00:12:39;14.60;99.90
29713;DHT22;16623;53.632;10.016;2022-07-10T00:15:04;14.70;99.90
29713;DHT22;16623;53.632;10.016;2022-07-10T00:17:31;14.70;99.90
29713;DHT22;16623;53.632;10.016;2022-07-10T00:19:56;14.70;99.90
29713;DHT22;16623;53.632;10.016;2022-07-10T00:22:22;15.80;99.90
29713;DHT22;16623;53.632;10.016;2022-07-10T00:24:48;14.70;99.90
29713;DHT22;16623;53.632;10.016;2022-07-10T00:27:16;14.60;99.90
29713;DHT22;16623;53.632;10.016;2022-07-10T00:29:41;14.70;99.90
29713;DHT22;16623;53.632;10.016;2022-07-10T00:32:07;14.70;99.90
29713;DHT22;16623;53.632;10.016;2022-07-10T00:34:32;14.60;99.90
29713;DHT22;16623;53.632;10.016;2022-07-10T00:36:58;14.70;99.90
29713;DHT22;16623;53.632;10.016;2022-07-10T00:39:24;14.70;99.90
29713;DHT22;16623;53.632;10.016;2022-07-10T00:41:49;14.70;99.90
29713;DHT22;16623;53.632;10.016;2022-07-10T00:44:14;14.60;99.90
29713;DHT22;16623;53.632;10.016;2022-07-10T00:46:40;14.60;99.90
29713;DHT22;16623;53.632;10.016;2022-07-10T00:49:06;14.50;99.90
29713;DHT22;16623;53.632;10.016;2022-07-10T00:51:31;14.50;99.90
29713;DHT22;16623;53.632;10.016;2022-07-10T00:53:58;14.50;99.90
29713;DHT22;16623;53.632;10.016;2022-07-10T00:56:25;14.50;99.90
29713;DHT22;16623;53.632;10.016;2022-07-10T00:58:51;14.60;99.90
29713;DHT22;16623;53.632;10.016;2022-07-10T01:01:17;14.60;99.90
29713;DHT22;16623;53.632;10.016;2022-07-10T01:03:42;14.60;99.90
29713;DHT22;16623;53.632;10.016;2022-07-10T01:06:09;14.50;99.90
29713;DHT22;16623;53.632;10.016;2022-07-10T01:08:34;14.50;99.90
29713;DHT22;16623;53.632;10.016;2022-07-10T01:11:00;14.50;99.90
29713;DHT22;16623;53.632;10.016;2022-07-10T01:13:26;14.50;99.90
29713;DHT22;16623;53.632;10.016;2022-07-10T01:15:51;14.50;99.90
29713;DHT22;16623;53.632;10.016;2022-07-10T01:18:17;14.50;99.90
29713;DHT22;16623;53.632;10.016;2022-07-10T01:20:43;14.70;99.90
29713;DHT22;16623;53.632;10.016;2022-07-10T01:23:08;14.60;99.90
29713;DHT22;16623;53.632;10.016;2022-07-10T01:25:34;14.60;99.90
29713;DHT22;16623;53.632;10.016;2022-07-10T01:27:59;14.60;99.90
29713;DHT22;16623;53.632;10.016;2022-07-10T01:30:25;14.60;99.90
29713;DHT22;16623;53.632;10.016;2022-07-10T01:32:51;14.60;99.90
29713;DHT22;16623;53.632;10.016;2022-07-10T01:35:17;14.50;99.90
29713;DHT22;16623;53.632;10.016;2022-07-10T01:37:43;14.50;99.90
29713;DHT22;16623;53.632;10.016;2022-07-10T01:40:09;14.50;99.90
29713;DHT22;16623;53.632;10.016;2022-07-10T01:42:34;14.50;99.90
29713;DHT22;16623;53.632;10.016;2022-07-10T01:44:59;14.50;99.90
29713;DHT22;16623;53.632;10.016;2022-07-10T01:47:25;14.60;99.90
29713;DHT22;16623;53.632;10.016;2022-07-10T01:49:51;14.50;99.90
29713;DHT22;16623;53.632;10.016;2022-07-10T01:52:18;14.60;99.90
29713;DHT22;16623;53.632;10.016;2022-07-10T01:54:43;14.60;99.90
29713;DHT22;16623;53.632;10.016;2022-07-10T01:57:09;14.60;99.90
29713;DHT22;16623;53.632;10.016;2022-07-10T01:59:34;14.60;99.90
29713;DHT22;16623;53.632;10.016;2022-07-10T02:02:00;14.60;99.90
29713;DHT22;16623;53.632;10.016;2022-07-10T02:04:25;14.70;99.90
29713;DHT22;16623;53.632;10.016;2022-07-10T02:07:17;14.60;99.90
29713;DHT22;16623;53.632;10.016;2022-07-10T02:09:42;14.60;99.90
29713;DHT22;16623;53.632;10.016;2022-07-10T02:12:09;14.60;99.90
29713;DHT22;16623;53.632;10.016;2022-07-10T02:14:35;14.70;99.90
29713;DHT22;16623;53.632;10.016;2022-07-10T02:17:00;14.40;99.90
29713;DHT22;16623;53.632;10.016;2022-07-10T02:19:26;14.70;99.90
29713;DHT22;16623;53.632;10.016;2022-07-10T02:21:52;14.70;99.90
29713;DHT22;16623;53.632;10.016;2022-07-10T02:27:07;14.70;99.90
29713;DHT22;16623;53.632;10.016;2022-07-10T02:29:33;14.70;99.90
29713;DHT22;16623;53.632;10.016;2022-07-10T02:31:59;14.70;99.90
29713;DHT22;16623;53.632;10.016;2022-07-10T02:34:24;14.70;99.90
29713;DHT22;16623;53.632;10.016;2022-07-10T02:36:49;14.60;99.90
29713;DHT22;16623;53.632;10.016;2022-07-10T02:39:15;14.70;99.90
29713;DHT22;16623;53.632;10.016;2022-07-10T02:41:41;14.60;99.90
29713;DHT22;16623;53.632;10.016;2022-07-10T02:44:06;14.60;99.90
29713;DHT22;16623;53.632;10.016;2022-07-10T02:46:32;14.70;99.90
29713;DHT22;16623;53.632;10.016;2022-07-10T02:48:57;14.60;99.90
29713;DHT22;16623;53.632;10.016;2022-07-10T02:51:23;14.60;99.90
29713;DHT22;16623;53.632;10.016;2022-07-10T02:53:48;14.70;99.90
29713;DHT22;16623;53.632;10.016;2022-07-10T02:56:13;14.70;99.90
29713;DHT22;16623;53.632;10.016;2022-07-10T02:58:39;14.70;99.90
29713;DHT22;16623;53.632;10.016;2022-07-10T03:01:04;14.70;99.90
29713;DHT22;16623;53.632;10.016;2022-07-10T03:03:30;14.70;99.90
29713;DHT22;16623;53.632;10.016;2022-07-10T03:05:55;14.70;99.90
29713;DHT22;16623;53.632;10.016;2022-07-10T03:08:21;14.70;99.90
29713;DHT22;16623;53.632;10.016;2022-07-10T03:10:46;14.70;99.90
29713;DHT22;16623;53.632;10.016;2022-07-10T03:13:12;14.70;99.90
29713;DHT22;16623;53.632;10.016;2022-07-10T03:15:37;14.70;99.90
29713;DHT22;16623;53.632;10.016;2022-07-10T03:18:03;14.80;99.90
29713;DHT22;16623;53.632;10.016;2022-07-10T03:20:29;14.80;99.90
29713;DHT22;16623;53.632;10.016;2022-07-10T03:22:54;14.80;99.90
29713;DHT22;16623;53.632;10.016;2022-07-10T03:25:20;14.80;99.90
29713;DHT22;16623;53.632;10.016;2022-07-10T03:27:45;14.80;99.90
29713;DHT22;16623;53.632;10.016;2022-07-10T03:30:10;14.70;99.90
29713;DHT22;16623;53.632;10.016;2022-07-10T03:32:36;14.70;99.90
29713;DHT22;16623;53.632;10.016;2022-07-10T03:35:02;14.70;99.90
29713;DHT22;16623;53.632;10.016;2022-07-10T03:37:27;14.70;99.90
29713;DHT22;16623;53.632;10.016;2022-07-10T03:39:53;14.60;99.90
29713;DHT22;16623;53.632;10.016;2022-07-10T03:42:18;14.70;99.90
29713;DHT22;16623;53.632;10.016;2022-07-10T03:44:44;14.60;99.90
29713;DHT22;16623;53.632;10.016;2022-07-10T03:47:10;14.70;99.90
29713;DHT22;16623;53.632;10.016;2022-07-10T03:49:36;14.60;99.90
29713;DHT22;16623;53.632;10.016;2022-07-10T03:52:04;14.60;99.90
29713;DHT22;16623;53.632;10.016;2022-07-10T03:54:29;14.60;99.90
29713;DHT22;16623;53.632;10.016;2022-07-10T03:56:55;14.60;99.90
29713;DHT22;16623;53.632;10.016;2022-07-10T03:59:40;14.70;99.90
29713;DHT22;16623;53.632;10.016;2022-07-10T04:02:06;14.70;99.90
29713;DHT22;16623;53.632;10.016;2022-07-10T04:04:31;14.70;99.90
29713;DHT22;16623;53.632;10.016;2022-07-10T04:06:57;14.70;99.90
29713;DHT22;16623;53.632;10.016;2022-07-10T04:09:23;14.80;99.90
29713;DHT22;16623;53.632;10.016;2022-07-10T04:11:48;14.70;99.90
29713;DHT22;16623;53.632;10.016;2022-07-10T04:14:13;14.70;99.90
29713;DHT22;16623;53.632;10.016;2022-07-10T04:16:39;14.60;99.90
29713;DHT22;16623;53.632;10.016;2022-07-10T04:19:04;14.70;99.90
29713;DHT22;16623;53.632;10.016;2022-07-10T04:21:30;14.60;99.90
29713;DHT22;16623;53.632;10.016;2022-07-10T04:23:55;14.70;99.90
29713;DHT22;16623;53.632;10.016;2022-07-10T04:26:21;14.70;99.90
29713;DHT22;16623;53.632;10.016;2022-07-10T04:28:46;14.80;99.90
29713;DHT22;16623;53.632;10.016;2022-07-10T04:31:12;14.80;99.90
29713;DHT22;16623;53.632;10.016;2022-07-10T04:33:37;14.80;99.90
29713;DHT22;16623;53.632;10.016;2022-07-10T04:36:03;15.00;99.90
29713;DHT22;16623;53.632;10.016;2022-07-10T04:38:28;15.00;99.90
29713;DHT22;16623;53.632;10.016;2022-07-10T04:40:54;14.90;99.90
29713;DHT22;16623;53.632;10.016;2022-07-10T04:43:19;15.00;99.90
29713;DHT22;16623;53.632;10.016;2022-07-10T04:45:45;15.00;99.90
29713;DHT22;16623;53.632;10.016;2022-07-10T04:48:11;14.90;99.90
29713;DHT22;16623;53.632;10.016;2022-07-10T04:50:37;14.80;99.90
29713;DHT22;16623;53.632;10.016;2022-07-10T04:53:02;14.90;99.90
29713;DHT22;16623;53.632;10.016;2022-07-10T04:55:28;14.80;99.90
29713;DHT22;16623;53.632;10.016;2022-07-10T04:57:53;14.80;99.90
29713;DHT22;16623;53.632;10.016;2022-07-10T05:00:19;14.90;99.90
29713;DHT22;16623;53.632;10.016;2022-07-10T05:02:44;14.90;99.90
29713;DHT22;16623;53.632;10.016;2022-07-10T05:05:10;15.10;99.90
29713;DHT22;16623;53.632;10.016;2022-07-10T05:07:35;15.60;99.90
29713;DHT22;16623;53.632;10.016;2022-07-10T05:10:01;15.80;99.90
29713;DHT22;16623;53.632;10.016;2022-07-10T05:12:26;15.70;99.90
29713;DHT22;16623;53.632;10.016;2022-07-10T05:14:52;15.60;99.90
29713;DHT22;16623;53.632;10.016;2022-07-10T05:17:17;15.50;99.90
29713;DHT22;16623;53.632;10.016;2022-07-10T05:19:43;15.40;99.90
29713;DHT22;16623;53.632;10.016;2022-07-10T05:22:08;15.40;99.90
29713;DHT22;16623;53.632;10.016;2022-07-10T05:24:34;15.40;99.90
29713;DHT22;16623;53.632;10.016;2022-07-10T05:27:00;15.30;99.90
29713;DHT22;16623;53.632;10.016;2022-07-10T05:29:25;15.10;99.90
29713;DHT22;16623;53.632;10.016;2022-07-10T05:31:51;15.00;99.90
29713;DHT22;16623;53.632;10.016;2022-07-10T05:34:16;15.00;99.90
29713;DHT22;16623;53.632;10.016;2022-07-10T05:36:42;15.00;99.90
29713;DHT22;16623;53.632;10.016;2022-07-10T05:39:07;15.10;99.90
29713;DHT22;16623;53.632;10.016;2022-07-10T05:41:32;15.10;99.90
29713;DHT22;16623;53.632;10.016;2022-07-10T05:43:58;15.10;99.90
29713;DHT22;16623;53.632;10.016;2022-07-10T05:46:24;15.00;99.90
29713;DHT22;16623;53.632;10.016;2022-07-10T05:48:50;15.00;99.90
29713;DHT22;16623;53.632;10.016;2022-07-10T05:51:16;15.10;99.90
29713;DHT22;16623;53.632;10.016;2022-07-10T05:53:41;15.20;99.90
29713;DHT22;16623;53.632;10.016;2022-07-10T05:56:07;15.10;99.90
29713;DHT22;16623;53.632;10.016;2022-07-10T05:58:32;15.10;99.90
29713;DHT22;16623;53.632;10.016;2022-07-10T06:00:57;16.20;99.90
29713;DHT22;16623;53.632;10.016;2022-07-10T06:03:23;15.30;99.90
29713;DHT22;16623;53.632;10.016;2022-07-10T06:05:49;15.20;99.90
29713;DHT22;16623;53.632;10.016;2022-07-10T06:08:15;15.20;99.90
29713;DHT22;16623;53.632;10.016;2022-07-10T06:10:40;15.30;99.90
29713;DHT22;16623;53.632;10.016;2022-07-10T06:13:06;15.40;99.90
29713;DHT22;16623;53.632;10.016;2022-07-10T06:15:31;15.60;99.90
29713;DHT22;16623;53.632;10.016;2022-07-10T06:17:57;15.50;99.90
29713;DHT22;16623;53.632;10.016;2022-07-10T06:20:24;15.50;99.90
29713;DHT22;16623;53.632;10.016;2022-07-10T06:22:49;15.60;99.90
29713;DHT22;16623;53.632;10.016;2022-07-10T06:25:14;15.50;99.90
29713;DHT22;16623;53.632;10.016;2022-07-10T06:27:40;15.60;99.90
29713;DHT22;16623;53.632;10.016;2022-07-10T06:30:06;15.50;99.90
29713;DHT22;16623;53.632;10.016;2022-07-10T06:32:31;15.30;99.90
29713;DHT22;16623;53.632;10.016;2022-07-10T06:34:57;15.40;99.90
29713;DHT22;16623;53.632;10.016;2022-07-10T06:37:22;15.50;99.90
29713;DHT22;16623;53.632;10.016;2022-07-10T06:39:48;15.60;99.90
29713;DHT22;16623;53.632;10.016;2022-07-10T06:42:13;15.60;99.90
29713;DHT22;16623;53.632;10.016;2022-07-10T06:44:40;15.70;99.90
29713;DHT22;16623;53.632;10.016;2022-07-10T06:47:06;15.80;99.90
29713;DHT22;16623;53.632;10.016;2022-07-10T06:49:50;15.80;99.90
29713;DHT22;16623;53.632;10.016;2022-07-10T06:52:17;15.80;99.90
29713;DHT22;16623;53.632;10.016;2022-07-10T06:54:43;16.00;99.90
29713;DHT22;16623;53.632;10.016;2022-07-10T06:57:08;16.30;99.90
29713;DHT22;16623;53.632;10.016;2022-07-10T06:59:33;16.80;99.90
29713;DHT22;16623;53.632;10.016;2022-07-10T07:01:59;17.50;99.90
29713;DHT22;16623;53.632;10.016;2022-07-10T07:04:24;17.80;99.90
29713;DHT22;16623;53.632;10.016;2022-07-10T07:06:50;17.80;99.90
29713;DHT22;16623;53.632;10.016;2022-07-10T07:09:15;17.80;99.90
29713;DHT22;16623;53.632;10.016;2022-07-10T07:11:41;17.80;99.90
29713;DHT22;16623;53.632;10.016;2022-07-10T07:14:06;17.40;99.90
29713;DHT22;16623;53.632;10.016;2022-07-10T07:16:32;16.80;99.90
29713;DHT22;16623;53.632;10.016;2022-07-10T07:19:10;16.60;99.90
29713;DHT22;16623;53.632;10.016;2022-07-10T07:21:36;16.60;99.90
29713;DHT22;16623;53.632;10.016;2022-07-10T07:24:21;16.60;99.90
29713;DHT22;16623;53.632;10.016;2022-07-10T07:26:46;16.60;99.90
29713;DHT22;16623;53.632;10.016;2022-07-10T07:29:13;16.70;99.90
29713;DHT22;16623;53.632;10.016;2022-07-10T07:31:39;16.80;99.90
29713;DHT22;16623;53.632;10.016;2022-07-10T07:34:05;16.80;99.90
29713;DHT22;16623;53.632;10.016;2022-07-10T07:36:30;16.80;99.90
29713;DHT22;16623;53.632;10.016;2022-07-10T07:38:56;16.90;99.90
29713;DHT22;16623;53.632;10.016;2022-07-10T07:41:21;16.80;99.90
29713;DHT22;16623;53.632;10.016;2022-07-10T07:43:48;16.90;99.90
29713;DHT22;16623;53.632;10.016;2022-07-10T07:46:13;17.00;99.90
29713;DHT22;16623;53.632;10.016;2022-07-10T07:48:39;17.20;99.90
29713;DHT22;16623;53.632;10.016;2022-07-10T07:51:04;17.30;99.90
29713;DHT22;16623;53.632;10.016;2022-07-10T07:53:30;17.30;99.90
29713;DHT22;16623;53.632;10.016;2022-07-10T07:55:55;17.00;99.90
29713;DHT22;16623;53.632;10.016;2022-07-10T07:58:21;17.00;99.90
29713;DHT22;16623;53.632;10.016;2022-07-10T08:00:46;16.90;99.90
29713;DHT22;16623;53.632;10.016;2022-07-10T08:03:11;16.90;99.90
29713;DHT22;16623;53.632;10.016;2022-07-10T08:05:37;17.00;99.90
29713;DHT22;16623;53.632;10.016;2022-07-10T08:08:02;16.70;99.90
29713;DHT22;16623;53.632;10.016;2022-07-10T08:10:34;16.70;99.90
29713;DHT22;16623;53.632;10.016;2022-07-10T08:12:59;16.80;99.90
29713;DHT22;16623;53.632;10.016;2022-07-10T08:15:25;16.90;99.90
29713;DHT22;16623;53.632;10.016;2022-07-10T08:17:51;17.10;99.90
29713;DHT22;16623;53.632;10.016;2022-07-10T08:20:17;17.20;99.90
29713;DHT22;16623;53.632;10.016;2022-07-10T08:22:43;17.30;99.90
29713;DHT22;16623;53.632;10.016;2022-07-10T08:25:09;17.30;99.90
29713;DHT22;16623;53.632;10.016;2022-07-10T08:27:35;17.30;99.90
29713;DHT22;16623;53.632;10.016;2022-07-10T08:30:00;17.30;99.90
29713;DHT22;16623;53.632;10.016;2022-07-10T08:32:26;17.40;99.90
29713;DHT22;16623;53.632;10.016;2022-07-10T08:34:54;17.50;99.90
29713;DHT22;16623;53.632;10.016;2022-07-10T08:37:20;17.70;99.90
29713;DHT22;16623;53.632;10.016;2022-07-10T08:39:46;17.80;99.90
29713;DHT22;16623;53.632;10.016;2022-07-10T08:42:11;17.90;99.90
29713;DHT22;16623;53.632;10.016;2022-07-10T08:44:37;17.90;99.90
29713;DHT22;16623;53.632;10.016;2022-07-10T08:47:02;17.90;99.90
29713;DHT22;16623;53.632;10.016;2022-07-10T08:49:29;17.90;99.90
29713;DHT22;16623;53.632;10.016;2022-07-10T08:54:21;17.80;99.90
29713;DHT22;16623;53.632;10.016;2022-07-10T08:56:47;17.80;99.90
29713;DHT22;16623;53.632;10.016;2022-07-10T08:59:12;17.80;99.90
29713;DHT22;16623;53.632;10.016;2022-07-10T09:01:39;17.90;99.90
29713;DHT22;16623;53.632;10.016;2022-07-10T09:04:04;18.00;99.90
29713;DHT22;16623;53.632;10.016;2022-07-10T09:06:30;17.80;99.90
29713;DHT22;16623;53.632;10.016;2022-07-10T09:09:00;17.80;99.90
29713;DHT22;16623;53.632;10.016;2022-07-10T09:11:26;17.70;99.90
29713;DHT22;16623;53.632;10.016;2022-07-10T09:13:58;17.70;99.90
29713;DHT22;16623;53.632;10.016;2022-07-10T09:16:28;17.80;99.90
29713;DHT22;16623;53.632;10.016;2022-07-10T09:18:54;18.10;99.90
29713;DHT22;16623;53.632;10.016;2022-07-10T09:21:20;18.30;99.90
29713;DHT22;16623;53.632;10.016;2022-07-10T09:23:45;18.50;99.90
29713;DHT22;16623;53.632;10.016;2022-07-10T09:26:11;18.30;99.90
29713;DHT22;16623;53.632;10.016;2022-07-10T09:28:37;18.50;99.90
29713;DHT22;16623;53.632;10.016;2022-07-10T09:31:05;18.50;99.90
29713;DHT22;16623;53.632;10.016;2022-07-10T09:33:31;18.50;99.90
29713;DHT22;16623;53.632;10.016;2022-07-10T09:35:59;18.40;99.90
29713;DHT22;16623;53.632;10.016;2022-07-10T09:41:23;18.70;99.90
29713;DHT22;16623;53.632;10.016;2022-07-10T09:43:53;18.80;99.90
29713;DHT22;16623;53.632;10.016;2022-07-10T09:46:52;18.90;99.90
29713;DHT22;16623;53.632;10.016;2022-07-10T09:49:11;18.80;99.90
29713;DHT22;16623;53.632;10.016;2022-07-10T09:51:38;18.80;99.90
29713;DHT22;16623;53.632;10.016;2022-07-10T09:54:06;19.10;99.90
29713;DHT22;16623;53.632;10.016;2022-07-10T09:56:45;19.20;99.90
29713;DHT22;16623;53.632;10.016;2022-07-10T09:59:13;19.20;99.90
29713;DHT22;16623;53.632;10.016;2022-07-10T10:01:43;19.10;99.90
29713;DHT22;16623;53.632;10.016;2022-07-10T10:04:11;19.20;99.90
29713;DHT22;16623;53.632;10.016;2022-07-10T10:06:37;19.10;99.90
29713;DHT22;16623;53.632;10.016;2022-07-10T10:09:04;19.10;99.90
29713;DHT22;16623;53.632;10.016;2022-07-10T10:11:31;19.10;99.90
29713;DHT22;16623;53.632;10.016;2022-07-10T10:13:57;19.00;99.90
29713;DHT22;16623;53.632;10.016;2022-07-10T10:16:23;18.90;99.90
29713;DHT22;16623;53.632;10.016;2022-07-10T10:18:50;18.90;99.90
29713;DHT22;16623;53.632;10.016;2022-07-10T10:21:35;18.80;99.90
29713;DHT22;16623;53.632;10.016;2022-07-10T10:24:01;18.80;99.90
29713;DHT22;16623;53.632;10.016;2022-07-10T10:26:27;18.70;99.90
29713;DHT22;16623;53.632;10.016;2022-07-10T10:28:54;18.90;99.90
29713;DHT22;16623;53.632;10.016;2022-07-10T10:31:21;19.20;99.90
29713;DHT22;16623;53.632;10.016;2022-07-10T10:33:47;19.20;99.90
29713;DHT22;16623;53.632;10.016;2022-07-10T10:39:14;19.10;99.90
29713;DHT22;16623;53.632;10.016;2022-07-10T10:41:51;19.00;99.90
29713;DHT22;16623;53.632;10.016;2022-07-10T10:46:56;18.90;99.90
29713;DHT22;16623;53.632;10.016;2022-07-10T10:49:26;18.90;99.90
29713;DHT22;16623;53.632;10.016;2022-07-10T10:52:02;18.90;99.90
29713;DHT22;16623;53.632;10.016;2022-07-10T10:54:31;18.90;99.90
29713;DHT22;16623;53.632;10.016;2022-07-10T10:57:16;19.00;99.90
29713;DHT22;16623;53.632;10.016;2022-07-10T11:10:26;19.40;99.90
29713;DHT22;16623;53.632;10.016;2022-07-10T11:15:29;19.50;99.90
29713;DHT22;16623;53.632;10.016;2022-07-10T11:20:40;19.80;99.90
29713;DHT22;16623;53.632;10.016;2022-07-10T11:23:26;19.80;99.90
29713;DHT22;16623;53.632;10.016;2022-07-10T11:26:04;19.40;99.90
29713;DHT22;16623;53.632;10.016;2022-07-10T11:31:18;19.30;99.90
29713;DHT22;16623;53.632;10.016;2022-07-10T11:33:44;19.10;99.90
29713;DHT22;16623;53.632;10.016;2022-07-10T11:36:12;19.30;99.90
29713;DHT22;16623;53.632;10.016;2022-07-10T11:38:39;19.30;99.90
29713;DHT22;16623;53.632;10.016;2022-07-10T11:41:11;19.10;99.90
29713;DHT22;16623;53.632;10.016;2022-07-10T11:43:44;18.90;99.90
29713;DHT22;16623;53.632;10.016;2022-07-10T11:46:10;19.00;99.90
29713;DHT22;16623;53.632;10.016;2022-07-10T11:48:39;19.00;99.90
29713;DHT22;16623;53.632;10.016;2022-07-10T11:54:03;18.80;99.90
29713;DHT22;16623;53.632;10.016;2022-07-10T11:56:30;18.70;99.90
29713;DHT22;16623;53.632;10.016;2022-07-10T12:01:24;19.60;99.90
29713;DHT22;16623;53.632;10.016;2022-07-10T12:03:54;19.70;99.90
29713;DHT22;16623;53.632;10.016;2022-07-10T12:06:21;19.80;99.90
29713;DHT22;16623;53.632;10.016;2022-07-10T12:08:48;19.70;99.90
29713;DHT22;16623;53.632;10.016;2022-07-10T12:11:16;19.60;99.90
29713;DHT22;16623;53.632;10.016;2022-07-10T12:13:47;19.50;99.90
29713;DHT22;16623;53.632;10.016;2022-07-10T12:16:13;19.40;99.90
29713;DHT22;16623;53.632;10.016;2022-07-10T12:18:38;19.60;99.90
29713;DHT22;16623;53.632;10.016;2022-07-10T12:21:07;19.70;99.90
29713;DHT22;16623;53.632;10.016;2022-07-10T12:23:33;19.90;99.90
29713;DHT22;16623;53.632;10.016;2022-07-10T12:26:00;19.80;99.90
29713;DHT22;16623;53.632;10.016;2022-07-10T12:28:26;19.80;99.90
29713;DHT22;16623;53.632;10.016;2022-07-10T12:30:52;19.60;99.90
29713;DHT22;16623;53.632;10.016;2022-07-10T12:33:19;19.20;99.90
29713;DHT22;16623;53.632;10.016;2022-07-10T12:35:57;19.00;99.90
29713;DHT22;16623;53.632;10.016;2022-07-10T12:38:27;18.90;99.90
29713;DHT22;16623;53.632;10.016;2022-07-10T12:41:09;19.10;99.90
29713;DHT22;16623;53.632;10.016;2022-07-10T12:43:35;19.10;99.90
29713;DHT22;16623;53.632;10.016;2022-07-10T12:48:41;19.30;99.90
29713;DHT22;16623;53.632;10.016;2022-07-10T12:51:25;19.20;99.90
29713;DHT22;16623;53.632;10.016;2022-07-10T12:53:51;19.10;99.90
29713;DHT22;16623;53.632;10.016;2022-07-10T12:56:27;19.00;99.90
29713;DHT22;16623;53.632;10.016;2022-07-10T12:58:53;19.10;99.90
29713;DHT22;16623;53.632;10.016;2022-07-10T13:01:18;19.10;99.90
29713;DHT22;16623;53.632;10.016;2022-07-10T13:03:44;19.30;99.90
29713;DHT22;16623;53.632;10.016;2022-07-10T13:06:29;19.40;99.90
29713;DHT22;16623;53.632;10.016;2022-07-10T13:08:55;19.40;99.90
29713;DHT22;16623;53.632;10.016;2022-07-10T13:11:20;19.50;99.90
29713;DHT22;16623;53.632;10.016;2022-07-10T13:13:47;19.40;99.90
29713;DHT22;16623;53.632;10.016;2022-07-10T13:16:13;19.40;99.90
29713;DHT22;16623;53.632;10.016;2022-07-10T13:18:38;19.40;99.90
29713;DHT22;16623;53.632;10.016;2022-07-10T13:21:07;19.50;99.90
29713;DHT22;16623;53.632;10.016;2022-07-10T13:23:32;19.60;99.90
29713;DHT22;16623;53.632;10.016;2022-07-10T13:25:58;19.60;99.90
29713;DHT22;16623;53.632;10.016;2022-07-10T13:28:28;19.30;99.90
29713;DHT22;16623;53.632;10.016;2022-07-10T13:30:53;19.20;99.90
29713;DHT22;16623;53.632;10.016;2022-07-10T13:33:19;19.20;99.90
29713;DHT22;16623;53.632;10.016;2022-07-10T13:35:44;19.10;99.90
29713;DHT22;16623;53.632;10.016;2022-07-10T13:38:10;19.10;99.90
29713;DHT22;16623;53.632;10.016;2022-07-10T13:40:38;18.80;99.90
29713;DHT22;16623;53.632;10.016;2022-07-10T13:43:04;19.00;99.90
29713;DHT22;16623;53.632;10.016;2022-07-10T13:45:34;19.00;99.90
29713;DHT22;16623;53.632;10.016;2022-07-10T13:48:03;18.70;99.90
29713;DHT22;16623;53.632;10.016;2022-07-10T13:50:28;18.70;99.90
29713;DHT22;16623;53.632;10.016;2022-07-10T13:52:54;18.70;99.90
29713;DHT22;16623;53.632;10.016;2022-07-10T13:55:20;18.50;99.90
29713;DHT22;16623;53.632;10.016;2022-07-10T13:57:45;18.60;99.90
29713;DHT22;16623;53.632;10.016;2022-07-10T14:00:11;18.70;99.90
29713;DHT22;16623;53.632;10.016;2022-07-10T14:02:37;18.90;99.90
29713;DHT22;16623;53.632;10.016;2022-07-10T14:05:02;18.80;99.90
29713;DHT22;16623;53.632;10.016;2022-07-10T14:07:28;18.80;99.90
29713;DHT22;16623;53.632;10.016;2022-07-10T14:09:53;18.80;99.90
29713;DHT22;16623;53.632;10.016;2022-07-10T14:12:19;19.00;99.90
29713;DHT22;16623;53.632;10.016;2022-07-10T14:14:44;19.10;99.90
29713;DHT22;16623;53.632;10.016;2022-07-10T14:17:10;19.00;99.90
29713;DHT22;16623;53.632;10.016;2022-07-10T14:19:36;19.10;99.90
29713;DHT22;16623;53.632;10.016;2022-07-10T14:22:01;18.80;99.90
29713;DHT22;16623;53.632;10.016;2022-07-10T14:24:28;18.70;99.90
29713;DHT22;16623;53.632;10.016;2022-07-10T14:26:53;18.70;99.90
29713;DHT22;16623;53.632;10.016;2022-07-10T14:29:19;18.70;99.90
29713;DHT22;16623;53.632;10.016;2022-07-10T14:31:45;18.80;99.90
29713;DHT22;16623;53.632;10.016;2022-07-10T14:34:17;18.60;99.90
29713;DHT22;16623;53.632;10.016;2022-07-10T14:36:42;18.60;99.90
29713;DHT22;16623;53.632;10.016;2022-07-10T14:39:08;18.50;99.90
29713;DHT22;16623;53.632;10.016;2022-07-10T14:41:33;18.60;99.90
29713;DHT22;16623;53.632;10.016;2022-07-10T14:43:59;18.70;99.90
29713;DHT22;16623;53.632;10.016;2022-07-10T14:46:24;18.60;99.90
29713;DHT22;16623;53.632;10.016;2022-07-10T14:48:50;18.70;99.90
29713;DHT22;16623;53.632;10.016;2022-07-10T14:51:15;18.60;99.90
29713;DHT22;16623;53.632;10.016;2022-07-10T14:53:41;18.70;99.90
29713;DHT22;16623;53.632;10.016;2022-07-10T14:56:08;18.60;99.90
29713;DHT22;16623;53.632;10.016;2022-07-10T14:58:34;18.30;99.90
29713;DHT22;16623;53.632;10.016;2022-07-10T15:00:59;18.10;99.90
29713;DHT22;16623;53.632;10.016;2022-07-10T15:03:25;18.20;99.90
29713;DHT22;16623;53.632;10.016;2022-07-10T15:05:51;18.10;99.90
29713;DHT22;16623;53.632;10.016;2022-07-10T15:08:19;18.20;99.90
29713;DHT22;16623;53.632;10.016;2022-07-10T15:10:44;18.30;99.90
29713;DHT22;16623;53.632;10.016;2022-07-10T15:13:11;18.10;99.90
29713;DHT22;16623;53.632;10.016;2022-07-10T15:15:37;18.00;99.90
29713;DHT22;16623;53.632;10.016;2022-07-10T15:18:02;17.90;99.90
29713;DHT22;16623;53.632;10.016;2022-07-10T15:20:28;17.80;99.90
29713;DHT22;16623;53.632;10.016;2022-07-10T15:22:53;17.70;99.90
29713;DHT22;16623;53.632;10.016;2022-07-10T15:25:19;17.80;99.90
29713;DHT22;16623;53.632;10.016;2022-07-10T15:27:44;18.10;99.90
29713;DHT22;16623;53.632;10.016;2022-07-10T15:30:10;18.10;99.90
29713;DHT22;16623;53.632;10.016;2022-07-10T15:32:39;18.20;99.90
29713;DHT22;16623;53.632;10.016;2022-07-10T15:35:05;18.30;99.90
29713;DHT22;16623;53.632;10.016;2022-07-10T15:37:31;18.50;99.90
29713;DHT22;16623;53.632;10.016;2022-07-10T15:39:57;18.60;99.90
29713;DHT22;16623;53.632;10.016;2022-07-10T15:42:22;18.70;99.90
29713;DHT22;16623;53.632;10.016;2022-07-10T15:44:48;18.70;99.90
29713;DHT22;16623;53.632;10.016;2022-07-10T15:47:13;18.50;99.90
29713;DHT22;16623;53.632;10.016;2022-07-10T15:49:39;18.60;99.90
29713;DHT22;16623;53.632;10.016;2022-07-10T15:52:04;18.60;99.90